sensor_id;sensor_type;location;lat;lon;timestamp;P1;durP1;ratioP1;P2;durP2;ratioP2
65077;SDS011;51672;51.230;-2.322;2022-10-20T00:02:12;31.67;;;12.70;;
65077;SDS011;51672;51.230;-2.322;2022-10-20T00:05:54;30.20;;;11.93;;
65077;SDS011;51672;51.230;-2.322;2022-10-20T00:09:50;25.50;;;10.37;;
65077;SDS011;51672;51.230;-2.322;2022-10-20T00:13:32;24.98;;;11.60;;
65077;SDS011;51672;51.230;-2.322;2022-10-20T00:17:14;21.67;;;10.60;;
65077;SDS011;51672;51.230;-2.322;2022-10-20T00:20:56;26.40;;;10.43;;
65077;SDS011;51672;51.230;-2.322;2022-10-20T00:24:38;21.58;;;10.15;;
65077;SDS011;51672;51.230;-2.322;2022-10-20T00:28:20;22.05;;;10.60;;
65077;SDS011;51672;51.230;-2.322;2022-10-20T00:32:02;27.70;;;11.13;;
65077;SDS011;51672;51.230;-2.322;2022-10-20T00:35:43;23.55;;;11.07;;
65077;SDS011;51672;51.230;-2.322;2022-10-20T00:39:25;23.83;;;11.40;;
65077;SDS011;51672;51.230;-2.322;2022-10-20T00:43:14;19.13;;;8.75;;
65077;SDS011;51672;51.230;-2.322;2022-10-20T00:46:57;20.70;;;9.60;;
65077;SDS011;51672;51.230;-2.322;2022-10-20T00:50:40;22.02;;;8.90;;
65077;SDS011;51672;51.230;-2.322;2022-10-20T00:54:26;22.85;;;8.85;;
65077;SDS011;51672;51.230;-2.322;2022-10-20T00:58:09;20.10;;;8.60;;
65077;SDS011;51672;51.230;-2.322;2022-10-20T01:01:51;26.92;;;8.15;;
65077;SDS011;51672;51.230;-2.322;2022-10-20T01:05:33;24.08;;;8.38;;
65077;SDS011;51672;51.230;-2.322;2022-10-20T01:09:15;19.05;;;7.68;;
65077;SDS011;51672;51.230;-2.322;2022-10-20T01:13:06;18.33;;;7.60;;
65077;SDS011;51672;51.230;-2.322;2022-10-20T01:17:28;23.98;;;8.02;;
65077;SDS011;51672;51.230;-2.322;2022-10-20T01:37:11;18.87;;;6.87;;
65077;SDS011;51672;51.230;-2.322;2022-10-20T01:45:23;16.40;;;6.07;;
65077;SDS011;51672;51.230;-2.322;2022-10-20T01:49:08;15.10;;;6.05;;
65077;SDS011;51672;51.230;-2.322;2022-10-20T01:52:57;19.77;;;5.60;;
65077;SDS011;51672;51.230;-2.322;2022-10-20T01:56:46;18.67;;;6.70;;
65077;SDS011;51672;51.230;-2.322;2022-10-20T02:00:50;18.98;;;5.65;;
65077;SDS011;51672;51.230;-2.322;2022-10-20T02:08:41;18.45;;;6.00;;
65077;SDS011;51672;51.230;-2.322;2022-10-20T02:12:27;16.33;;;6.10;;
65077;SDS011;51672;51.230;-2.322;2022-10-20T02:16:15;21.97;;;6.53;;
65077;SDS011;51672;51.230;-2.322;2022-10-20T02:20:04;19.77;;;6.57;;
65077;SDS011;51672;51.230;-2.322;2022-10-20T02:23:47;16.55;;;5.45;;
65077;SDS011;51672;51.230;-2.322;2022-10-20T02:27:33;19.63;;;6.40;;
65077;SDS011;51672;51.230;-2.322;2022-10-20T02:31:17;15.48;;;5.55;;
65077;SDS011;51672;51.230;-2.322;2022-10-20T02:35:04;20.52;;;5.95;;
65077;SDS011;51672;51.230;-2.322;2022-10-20T02:38:47;23.48;;;6.55;;
65077;SDS011;51672;51.230;-2.322;2022-10-20T02:42:29;15.60;;;5.50;;
65077;SDS011;51672;51.230;-2.322;2022-10-20T02:46:11;18.90;;;5.25;;
65077;SDS011;51672;51.230;-2.322;2022-10-20T02:49:53;15.55;;;4.80;;
65077;SDS011;51672;51.230;-2.322;2022-10-20T02:53:35;19.00;;;5.33;;
65077;SDS011;51672;51.230;-2.322;2022-10-20T02:57:17;19.58;;;5.60;;
65077;SDS011;51672;51.230;-2.322;2022-10-20T03:00:59;21.85;;;5.82;;
65077;SDS011;51672;51.230;-2.322;2022-10-20T03:04:41;21.85;;;6.45;;
65077;SDS011;51672;51.230;-2.322;2022-10-20T03:08:23;20.30;;;5.45;;
65077;SDS011;51672;51.230;-2.322;2022-10-20T03:12:05;18.63;;;5.28;;
65077;SDS011;51672;51.230;-2.322;2022-10-20T03:15:47;17.05;;;5.35;;
65077;SDS011;51672;51.230;-2.322;2022-10-20T03:19:29;15.23;;;5.07;;
65077;SDS011;51672;51.230;-2.322;2022-10-20T03:23:11;15.73;;;6.43;;
65077;SDS011;51672;51.230;-2.322;2022-10-20T03:26:57;18.10;;;5.47;;
65077;SDS011;51672;51.230;-2.322;2022-10-20T03:30:39;23.17;;;5.87;;
65077;SDS011;51672;51.230;-2.322;2022-10-20T03:34:22;16.42;;;4.95;;
65077;SDS011;51672;51.230;-2.322;2022-10-20T03:38:04;18.40;;;5.22;;
65077;SDS011;51672;51.230;-2.322;2022-10-20T03:41:46;16.13;;;5.38;;
65077;SDS011;51672;51.230;-2.322;2022-10-20T03:45:27;16.80;;;5.68;;
65077;SDS011;51672;51.230;-2.322;2022-10-20T03:49:10;14.43;;;5.65;;
65077;SDS011;51672;51.230;-2.322;2022-10-20T03:52:52;20.25;;;5.63;;
65077;SDS011;51672;51.230;-2.322;2022-10-20T03:56:33;17.93;;;4.80;;
65077;SDS011;51672;51.230;-2.322;2022-10-20T04:00:15;14.88;;;6.00;;
65077;SDS011;51672;51.230;-2.322;2022-10-20T04:03:58;23.92;;;5.93;;
65077;SDS011;51672;51.230;-2.322;2022-10-20T04:07:40;18.00;;;5.23;;
65077;SDS011;51672;51.230;-2.322;2022-10-20T04:11:22;19.38;;;5.20;;
65077;SDS011;51672;51.230;-2.322;2022-10-20T04:15:04;18.58;;;5.30;;
65077;SDS011;51672;51.230;-2.322;2022-10-20T04:18:47;22.42;;;5.10;;
65077;SDS011;51672;51.230;-2.322;2022-10-20T04:22:29;16.45;;;5.15;;
65077;SDS011;51672;51.230;-2.322;2022-10-20T04:26:12;20.08;;;5.47;;
65077;SDS011;51672;51.230;-2.322;2022-10-20T04:29:56;16.27;;;4.85;;
65077;SDS011;51672;51.230;-2.322;2022-10-20T04:33:37;18.93;;;4.80;;
65077;SDS011;51672;51.230;-2.322;2022-10-20T04:37:19;17.52;;;5.60;;
65077;SDS011;51672;51.230;-2.322;2022-10-20T04:41:02;15.38;;;5.28;;
65077;SDS011;51672;51.230;-2.322;2022-10-20T04:44:45;15.70;;;6.13;;
65077;SDS011;51672;51.230;-2.322;2022-10-20T04:48:27;20.52;;;5.50;;
65077;SDS011;51672;51.230;-2.322;2022-10-20T04:52:09;18.58;;;5.80;;
65077;SDS011;51672;51.230;-2.322;2022-10-20T04:55:54;22.52;;;5.90;;
65077;SDS011;51672;51.230;-2.322;2022-10-20T04:59:37;23.67;;;6.50;;
65077;SDS011;51672;51.230;-2.322;2022-10-20T05:03:19;22.63;;;5.40;;
65077;SDS011;51672;51.230;-2.322;2022-10-20T05:07:01;17.92;;;5.50;;
65077;SDS011;51672;51.230;-2.322;2022-10-20T05:10:43;19.67;;;5.33;;
65077;SDS011;51672;51.230;-2.322;2022-10-20T05:14:25;16.17;;;4.68;;
65077;SDS011;51672;51.230;-2.322;2022-10-20T05:18:07;22.27;;;6.97;;
65077;SDS011;51672;51.230;-2.322;2022-10-20T05:21:49;18.67;;;6.20;;
65077;SDS011;51672;51.230;-2.322;2022-10-20T05:25:31;20.00;;;5.88;;
65077;SDS011;51672;51.230;-2.322;2022-10-20T05:29:17;17.48;;;5.60;;
65077;SDS011;51672;51.230;-2.322;2022-10-20T05:32:58;19.60;;;5.78;;
65077;SDS011;51672;51.230;-2.322;2022-10-20T05:36:40;18.92;;;5.78;;
65077;SDS011;51672;51.230;-2.322;2022-10-20T05:40:22;17.48;;;6.05;;
65077;SDS011;51672;51.230;-2.322;2022-10-20T05:44:06;18.52;;;4.88;;
65077;SDS011;51672;51.230;-2.322;2022-10-20T05:47:49;14.10;;;4.57;;
65077;SDS011;51672;51.230;-2.322;2022-10-20T05:51:33;20.65;;;5.45;;
65077;SDS011;51672;51.230;-2.322;2022-10-20T05:55:16;15.52;;;4.38;;
65077;SDS011;51672;51.230;-2.322;2022-10-20T05:58:58;18.03;;;3.93;;
65077;SDS011;51672;51.230;-2.322;2022-10-20T06:02:40;17.17;;;4.45;;
65077;SDS011;51672;51.230;-2.322;2022-10-20T06:06:24;16.02;;;3.50;;
65077;SDS011;51672;51.230;-2.322;2022-10-20T06:10:08;15.63;;;4.05;;
65077;SDS011;51672;51.230;-2.322;2022-10-20T06:13:50;16.40;;;3.78;;
65077;SDS011;51672;51.230;-2.322;2022-10-20T06:17:33;24.63;;;4.00;;
65077;SDS011;51672;51.230;-2.322;2022-10-20T06:21:20;19.05;;;4.25;;
65077;SDS011;51672;51.230;-2.322;2022-10-20T06:25:03;17.77;;;3.10;;
65077;SDS011;51672;51.230;-2.322;2022-10-20T06:28:47;15.27;;;3.33;;
65077;SDS011;51672;51.230;-2.322;2022-10-20T06:32:32;13.43;;;2.83;;
65077;SDS011;51672;51.230;-2.322;2022-10-20T06:36:15;15.80;;;3.77;;
65077;SDS011;51672;51.230;-2.322;2022-10-20T06:39:58;10.10;;;2.35;;
65077;SDS011;51672;51.230;-2.322;2022-10-20T06:43:40;17.48;;;2.72;;
65077;SDS011;51672;51.230;-2.322;2022-10-20T06:47:23;15.73;;;3.25;;
65077;SDS011;51672;51.230;-2.322;2022-10-20T06:51:05;18.48;;;2.97;;
65077;SDS011;51672;51.230;-2.322;2022-10-20T06:54:50;16.98;;;2.75;;
65077;SDS011;51672;51.230;-2.322;2022-10-20T06:58:33;17.13;;;2.80;;
65077;SDS011;51672;51.230;-2.322;2022-10-20T07:02:16;16.07;;;3.23;;
65077;SDS011;51672;51.230;-2.322;2022-10-20T07:05:58;15.73;;;2.95;;
65077;SDS011;51672;51.230;-2.322;2022-10-20T07:09:40;21.73;;;2.97;;
65077;SDS011;51672;51.230;-2.322;2022-10-20T07:13:22;20.90;;;3.03;;
65077;SDS011;51672;51.230;-2.322;2022-10-20T07:17:04;17.52;;;3.08;;
65077;SDS011;51672;51.230;-2.322;2022-10-20T07:20:45;16.50;;;2.70;;
65077;SDS011;51672;51.230;-2.322;2022-10-20T07:24:28;15.55;;;3.05;;
65077;SDS011;51672;51.230;-2.322;2022-10-20T07:28:09;14.07;;;2.83;;
65077;SDS011;51672;51.230;-2.322;2022-10-20T07:31:51;8.40;;;2.50;;
65077;SDS011;51672;51.230;-2.322;2022-10-20T07:35:34;10.57;;;3.20;;
65077;SDS011;51672;51.230;-2.322;2022-10-20T07:39:16;12.07;;;2.63;;
65077;SDS011;51672;51.230;-2.322;2022-10-20T07:42:58;12.63;;;2.88;;
65077;SDS011;51672;51.230;-2.322;2022-10-20T07:46:41;15.30;;;2.67;;
65077;SDS011;51672;51.230;-2.322;2022-10-20T07:50:23;13.13;;;3.07;;
65077;SDS011;51672;51.230;-2.322;2022-10-20T07:54:06;17.20;;;3.47;;
65077;SDS011;51672;51.230;-2.322;2022-10-20T07:57:48;12.27;;;2.65;;
65077;SDS011;51672;51.230;-2.322;2022-10-20T08:01:31;12.75;;;3.00;;
65077;SDS011;51672;51.230;-2.322;2022-10-20T08:05:19;15.00;;;2.80;;
65077;SDS011;51672;51.230;-2.322;2022-10-20T08:09:01;12.05;;;3.47;;
65077;SDS011;51672;51.230;-2.322;2022-10-20T08:12:44;14.57;;;2.85;;
65077;SDS011;51672;51.230;-2.322;2022-10-20T08:16:35;12.50;;;2.17;;
65077;SDS011;51672;51.230;-2.322;2022-10-20T08:20:19;9.75;;;2.30;;
65077;SDS011;51672;51.230;-2.322;2022-10-20T08:24:07;9.38;;;2.47;;
65077;SDS011;51672;51.230;-2.322;2022-10-20T08:27:52;12.43;;;2.77;;
65077;SDS011;51672;51.230;-2.322;2022-10-20T08:31:34;13.20;;;2.05;;
65077;SDS011;51672;51.230;-2.322;2022-10-20T08:35:16;12.90;;;2.35;;
65077;SDS011;51672;51.230;-2.322;2022-10-20T08:39:07;11.38;;;2.60;;
65077;SDS011;51672;51.230;-2.322;2022-10-20T08:42:49;11.77;;;2.42;;
65077;SDS011;51672;51.230;-2.322;2022-10-20T08:46:33;8.95;;;2.53;;
65077;SDS011;51672;51.230;-2.322;2022-10-20T08:50:23;10.60;;;2.53;;
65077;SDS011;51672;51.230;-2.322;2022-10-20T08:54:12;7.90;;;1.80;;
65077;SDS011;51672;51.230;-2.322;2022-10-20T08:58:00;7.78;;;1.45;;
65077;SDS011;51672;51.230;-2.322;2022-10-20T09:02:02;6.00;;;1.35;;
65077;SDS011;51672;51.230;-2.322;2022-10-20T09:10:22;8.43;;;1.92;;
65077;SDS011;51672;51.230;-2.322;2022-10-20T09:14:21;11.40;;;2.17;;
65077;SDS011;51672;51.230;-2.322;2022-10-20T09:18:09;9.18;;;1.88;;
65077;SDS011;51672;51.230;-2.322;2022-10-20T09:21:55;9.73;;;2.45;;
65077;SDS011;51672;51.230;-2.322;2022-10-20T09:25:38;8.55;;;1.95;;
65077;SDS011;51672;51.230;-2.322;2022-10-20T09:33:32;6.67;;;1.40;;
65077;SDS011;51672;51.230;-2.322;2022-10-20T09:37:17;8.30;;;1.77;;
65077;SDS011;51672;51.230;-2.322;2022-10-20T09:53:33;5.68;;;1.73;;
65077;SDS011;51672;51.230;-2.322;2022-10-20T10:01:22;6.05;;;1.73;;
65077;SDS011;51672;51.230;-2.322;2022-10-20T10:09:31;8.45;;;1.90;;
65077;SDS011;51672;51.230;-2.322;2022-10-20T10:17:07;8.00;;;2.25;;
65077;SDS011;51672;51.230;-2.322;2022-10-20T10:20:56;7.93;;;1.70;;
65077;SDS011;51672;51.230;-2.322;2022-10-20T10:25:25;7.23;;;1.90;;
65077;SDS011;51672;51.230;-2.322;2022-10-20T10:29:34;10.23;;;1.55;;
65077;SDS011;51672;51.230;-2.322;2022-10-20T10:37:23;8.95;;;1.67;;
65077;SDS011;51672;51.230;-2.322;2022-10-20T11:10:28;11.10;;;1.90;;
65077;SDS011;51672;51.230;-2.322;2022-10-20T11:14:46;11.30;;;2.15;;
65077;SDS011;51672;51.230;-2.322;2022-10-20T11:36:17;12.50;;;1.83;;
65077;SDS011;51672;51.230;-2.322;2022-10-20T11:44:13;10.50;;;3.17;;
65077;SDS011;51672;51.230;-2.322;2022-10-20T11:47:59;10.87;;;2.57;;
65077;SDS011;51672;51.230;-2.322;2022-10-20T11:52:07;10.88;;;2.17;;
65077;SDS011;51672;51.230;-2.322;2022-10-20T11:56:20;8.05;;;2.10;;
65077;SDS011;51672;51.230;-2.322;2022-10-20T12:04:20;8.77;;;1.63;;
65077;SDS011;51672;51.230;-2.322;2022-10-20T12:13:21;12.60;;;2.53;;
65077;SDS011;51672;51.230;-2.322;2022-10-20T12:17:21;7.47;;;1.90;;
65077;SDS011;51672;51.230;-2.322;2022-10-20T12:25:34;5.20;;;1.77;;
65077;SDS011;51672;51.230;-2.322;2022-10-20T12:45:48;7.80;;;2.05;;
65077;SDS011;51672;51.230;-2.322;2022-10-20T12:49:32;3.42;;;1.17;;
65077;SDS011;51672;51.230;-2.322;2022-10-20T13:02:17;4.28;;;1.20;;
65077;SDS011;51672;51.230;-2.322;2022-10-20T13:10:36;4.90;;;1.40;;
65077;SDS011;51672;51.230;-2.322;2022-10-20T13:18:29;4.45;;;0.98;;
65077;SDS011;51672;51.230;-2.322;2022-10-20T13:26:22;4.22;;;0.70;;
65077;SDS011;51672;51.230;-2.322;2022-10-20T13:38:49;4.37;;;0.67;;
65077;SDS011;51672;51.230;-2.322;2022-10-20T13:51:12;6.90;;;1.67;;
65077;SDS011;51672;51.230;-2.322;2022-10-20T13:55:16;5.55;;;1.00;;
65077;SDS011;51672;51.230;-2.322;2022-10-20T13:59:02;5.53;;;0.90;;
65077;SDS011;51672;51.230;-2.322;2022-10-20T14:07:02;6.70;;;1.42;;
65077;SDS011;51672;51.230;-2.322;2022-10-20T14:14:49;7.28;;;1.52;;
65077;SDS011;51672;51.230;-2.322;2022-10-20T14:18:32;8.03;;;1.17;;
65077;SDS011;51672;51.230;-2.322;2022-10-20T14:22:41;8.52;;;1.90;;
65077;SDS011;51672;51.230;-2.322;2022-10-20T14:26:24;4.97;;;1.23;;
65077;SDS011;51672;51.230;-2.322;2022-10-20T14:30:12;5.40;;;1.33;;
65077;SDS011;51672;51.230;-2.322;2022-10-20T14:33:56;6.50;;;1.23;;
65077;SDS011;51672;51.230;-2.322;2022-10-20T14:37:38;4.72;;;0.82;;
65077;SDS011;51672;51.230;-2.322;2022-10-20T14:45:18;5.85;;;0.98;;
65077;SDS011;51672;51.230;-2.322;2022-10-20T14:57:41;3.67;;;0.60;;
65077;SDS011;51672;51.230;-2.322;2022-10-20T15:10:05;5.20;;;1.00;;
65077;SDS011;51672;51.230;-2.322;2022-10-20T15:14:13;5.68;;;1.17;;
65077;SDS011;51672;51.230;-2.322;2022-10-20T15:18:18;5.88;;;1.40;;
65077;SDS011;51672;51.230;-2.322;2022-10-20T15:22:23;5.65;;;1.55;;
65077;SDS011;51672;51.230;-2.322;2022-10-20T15:26:11;8.35;;;1.63;;
65077;SDS011;51672;51.230;-2.322;2022-10-20T15:30:19;4.95;;;1.23;;
65077;SDS011;51672;51.230;-2.322;2022-10-20T15:34:02;6.15;;;1.20;;
65077;SDS011;51672;51.230;-2.322;2022-10-20T15:38:09;10.37;;;1.30;;
65077;SDS011;51672;51.230;-2.322;2022-10-20T15:41:55;8.50;;;1.50;;
65077;SDS011;51672;51.230;-2.322;2022-10-20T15:45:38;11.57;;;1.65;;
65077;SDS011;51672;51.230;-2.322;2022-10-20T15:49:24;7.93;;;1.30;;
65077;SDS011;51672;51.230;-2.322;2022-10-20T15:53:13;8.00;;;1.75;;
65077;SDS011;51672;51.230;-2.322;2022-10-20T15:57:19;11.65;;;1.60;;
65077;SDS011;51672;51.230;-2.322;2022-10-20T16:01:06;10.20;;;1.55;;
65077;SDS011;51672;51.230;-2.322;2022-10-20T16:05:11;7.65;;;1.52;;
65077;SDS011;51672;51.230;-2.322;2022-10-20T16:08:57;9.43;;;1.30;;
65077;SDS011;51672;51.230;-2.322;2022-10-20T16:12:39;6.45;;;1.00;;
65077;SDS011;51672;51.230;-2.322;2022-10-20T16:16:28;9.40;;;1.63;;
65077;SDS011;51672;51.230;-2.322;2022-10-20T16:20:13;9.07;;;1.60;;
65077;SDS011;51672;51.230;-2.322;2022-10-20T16:24:02;8.32;;;1.75;;
65077;SDS011;51672;51.230;-2.322;2022-10-20T16:27:45;11.67;;;1.80;;
65077;SDS011;51672;51.230;-2.322;2022-10-20T16:31:30;8.32;;;1.95;;
65077;SDS011;51672;51.230;-2.322;2022-10-20T16:35:42;8.75;;;1.30;;
65077;SDS011;51672;51.230;-2.322;2022-10-20T16:43:31;6.53;;;1.20;;
65077;SDS011;51672;51.230;-2.322;2022-10-20T16:47:16;8.43;;;1.50;;
65077;SDS011;51672;51.230;-2.322;2022-10-20T16:51:22;8.38;;;2.00;;
65077;SDS011;51672;51.230;-2.322;2022-10-20T16:55:05;9.93;;;1.70;;
65077;SDS011;51672;51.230;-2.322;2022-10-20T17:02:38;7.97;;;1.35;;
65077;SDS011;51672;51.230;-2.322;2022-10-20T17:06:23;7.70;;;1.33;;
65077;SDS011;51672;51.230;-2.322;2022-10-20T17:13:49;8.75;;;1.02;;
65077;SDS011;51672;51.230;-2.322;2022-10-20T17:17:32;7.70;;;1.45;;
65077;SDS011;51672;51.230;-2.322;2022-10-20T17:21:15;7.30;;;1.20;;
65077;SDS011;51672;51.230;-2.322;2022-10-20T17:24:57;10.13;;;1.50;;
65077;SDS011;51672;51.230;-2.322;2022-10-20T17:28:39;5.85;;;1.40;;
65077;SDS011;51672;51.230;-2.322;2022-10-20T17:32:21;7.20;;;1.30;;
65077;SDS011;51672;51.230;-2.322;2022-10-20T17:36:03;6.30;;;1.30;;
65077;SDS011;51672;51.230;-2.322;2022-10-20T17:39:46;6.65;;;1.30;;
65077;SDS011;51672;51.230;-2.322;2022-10-20T17:43:28;7.30;;;0.90;;
65077;SDS011;51672;51.230;-2.322;2022-10-20T17:47:10;7.45;;;1.38;;
65077;SDS011;51672;51.230;-2.322;2022-10-20T17:54:41;7.45;;;1.50;;
65077;SDS011;51672;51.230;-2.322;2022-10-20T17:58:23;10.07;;;1.30;;
65077;SDS011;51672;51.230;-2.322;2022-10-20T18:02:07;5.13;;;1.10;;
65077;SDS011;51672;51.230;-2.322;2022-10-20T18:05:50;5.50;;;1.20;;
65077;SDS011;51672;51.230;-2.322;2022-10-20T18:09:32;7.70;;;1.33;;
65077;SDS011;51672;51.230;-2.322;2022-10-20T18:13:13;8.18;;;2.03;;
65077;SDS011;51672;51.230;-2.322;2022-10-20T18:16:56;9.05;;;3.05;;
65077;SDS011;51672;51.230;-2.322;2022-10-20T18:20:38;11.40;;;3.20;;
65077;SDS011;51672;51.230;-2.322;2022-10-20T18:24:20;10.68;;;2.38;;
65077;SDS011;51672;51.230;-2.322;2022-10-20T18:28:02;8.02;;;2.10;;
65077;SDS011;51672;51.230;-2.322;2022-10-20T18:31:44;9.23;;;2.13;;
65077;SDS011;51672;51.230;-2.322;2022-10-20T18:35:27;8.93;;;2.08;;
65077;SDS011;51672;51.230;-2.322;2022-10-20T18:39:09;11.15;;;2.53;;
65077;SDS011;51672;51.230;-2.322;2022-10-20T18:42:51;11.43;;;2.80;;
65077;SDS011;51672;51.230;-2.322;2022-10-20T18:46:33;12.63;;;2.80;;
65077;SDS011;51672;51.230;-2.322;2022-10-20T18:50:15;9.07;;;3.25;;
65077;SDS011;51672;51.230;-2.322;2022-10-20T18:53:57;11.55;;;3.05;;
65077;SDS011;51672;51.230;-2.322;2022-10-20T18:57:40;6.97;;;2.27;;
65077;SDS011;51672;51.230;-2.322;2022-10-20T19:01:23;8.07;;;2.78;;
65077;SDS011;51672;51.230;-2.322;2022-10-20T19:05:07;12.75;;;4.10;;
65077;SDS011;51672;51.230;-2.322;2022-10-20T19:08:53;10.73;;;3.10;;
65077;SDS011;51672;51.230;-2.322;2022-10-20T19:12:36;6.93;;;2.33;;
65077;SDS011;51672;51.230;-2.322;2022-10-20T19:16:20;11.68;;;2.88;;
65077;SDS011;51672;51.230;-2.322;2022-10-20T19:20:03;7.25;;;2.65;;
65077;SDS011;51672;51.230;-2.322;2022-10-20T19:23:47;7.97;;;2.57;;
65077;SDS011;51672;51.230;-2.322;2022-10-20T19:27:32;7.90;;;2.55;;
65077;SDS011;51672;51.230;-2.322;2022-10-20T19:35:01;6.63;;;2.40;;
65077;SDS011;51672;51.230;-2.322;2022-10-20T19:38:44;8.13;;;2.10;;
65077;SDS011;51672;51.230;-2.322;2022-10-20T19:42:27;5.22;;;1.80;;
65077;SDS011;51672;51.230;-2.322;2022-10-20T19:46:10;5.20;;;2.10;;
65077;SDS011;51672;51.230;-2.322;2022-10-20T19:49:53;6.53;;;2.20;;
65077;SDS011;51672;51.230;-2.322;2022-10-20T19:53:35;8.18;;;2.63;;
65077;SDS011;51672;51.230;-2.322;2022-10-20T19:57:18;6.47;;;2.50;;
65077;SDS011;51672;51.230;-2.322;2022-10-20T20:01:00;5.73;;;1.67;;
65077;SDS011;51672;51.230;-2.322;2022-10-20T20:04:42;5.47;;;2.40;;
65077;SDS011;51672;51.230;-2.322;2022-10-20T20:08:24;10.40;;;4.13;;
65077;SDS011;51672;51.230;-2.322;2022-10-20T20:12:06;7.43;;;2.60;;
65077;SDS011;51672;51.230;-2.322;2022-10-20T20:15:49;8.27;;;3.65;;
65077;SDS011;51672;51.230;-2.322;2022-10-20T20:19:31;10.18;;;4.75;;
65077;SDS011;51672;51.230;-2.322;2022-10-20T20:23:13;9.32;;;4.22;;
65077;SDS011;51672;51.230;-2.322;2022-10-20T20:26:56;11.05;;;2.90;;
65077;SDS011;51672;51.230;-2.322;2022-10-20T20:30:38;9.43;;;2.83;;
65077;SDS011;51672;51.230;-2.322;2022-10-20T20:34:20;9.95;;;2.85;;
65077;SDS011;51672;51.230;-2.322;2022-10-20T20:38:02;5.77;;;2.00;;
65077;SDS011;51672;51.230;-2.322;2022-10-20T20:41:44;9.20;;;2.05;;
65077;SDS011;51672;51.230;-2.322;2022-10-20T20:45:27;6.90;;;1.73;;
65077;SDS011;51672;51.230;-2.322;2022-10-20T20:49:09;9.07;;;2.60;;
65077;SDS011;51672;51.230;-2.322;2022-10-20T20:52:51;6.00;;;2.20;;
65077;SDS011;51672;51.230;-2.322;2022-10-20T20:56:33;7.07;;;2.40;;
65077;SDS011;51672;51.230;-2.322;2022-10-20T21:00:15;8.00;;;2.40;;
65077;SDS011;51672;51.230;-2.322;2022-10-20T21:03:58;8.20;;;1.90;;
65077;SDS011;51672;51.230;-2.322;2022-10-20T21:07:42;10.90;;;2.65;;
65077;SDS011;51672;51.230;-2.322;2022-10-20T21:11:25;7.82;;;2.00;;
65077;SDS011;51672;51.230;-2.322;2022-10-20T21:15:07;10.37;;;1.80;;
65077;SDS011;51672;51.230;-2.322;2022-10-20T21:18:51;5.47;;;2.03;;
65077;SDS011;51672;51.230;-2.322;2022-10-20T21:22:34;6.38;;;2.15;;
65077;SDS011;51672;51.230;-2.322;2022-10-20T21:26:18;6.03;;;2.13;;
65077;SDS011;51672;51.230;-2.322;2022-10-20T21:30:02;9.27;;;2.50;;
65077;SDS011;51672;51.230;-2.322;2022-10-20T21:33:44;7.57;;;3.67;;
65077;SDS011;51672;51.230;-2.322;2022-10-20T21:37:29;13.30;;;4.15;;
65077;SDS011;51672;51.230;-2.322;2022-10-20T21:41:13;11.60;;;4.22;;
65077;SDS011;51672;51.230;-2.322;2022-10-20T21:44:59;11.32;;;5.38;;
65077;SDS011;51672;51.230;-2.322;2022-10-20T21:48:41;11.18;;;4.03;;
65077;SDS011;51672;51.230;-2.322;2022-10-20T21:52:24;10.10;;;4.10;;
65077;SDS011;51672;51.230;-2.322;2022-10-20T21:56:06;8.95;;;4.60;;
65077;SDS011;51672;51.230;-2.322;2022-10-20T21:59:48;11.23;;;4.25;;
65077;SDS011;51672;51.230;-2.322;2022-10-20T22:03:31;10.00;;;4.60;;
65077;SDS011;51672;51.230;-2.322;2022-10-20T22:07:17;8.88;;;4.15;;
65077;SDS011;51672;51.230;-2.322;2022-10-20T22:11:06;8.57;;;4.30;;
65077;SDS011;51672;51.230;-2.322;2022-10-20T22:14:51;11.07;;;4.95;;
65077;SDS011;51672;51.230;-2.322;2022-10-20T22:18:33;8.85;;;5.00;;
65077;SDS011;51672;51.230;-2.322;2022-10-20T22:22:15;11.43;;;5.60;;
65077;SDS011;51672;51.230;-2.322;2022-10-20T22:25:57;11.32;;;6.50;;
65077;SDS011;51672;51.230;-2.322;2022-10-20T22:29:39;16.33;;;6.17;;
65077;SDS011;51672;51.230;-2.322;2022-10-20T22:33:21;9.02;;;5.30;;
65077;SDS011;51672;51.230;-2.322;2022-10-20T22:37:03;13.80;;;4.63;;
65077;SDS011;51672;51.230;-2.322;2022-10-20T22:40:45;8.67;;;5.07;;
65077;SDS011;51672;51.230;-2.322;2022-10-20T22:44:27;10.75;;;4.05;;
65077;SDS011;51672;51.230;-2.322;2022-10-20T22:48:09;11.27;;;4.07;;
65077;SDS011;51672;51.230;-2.322;2022-10-20T22:51:51;10.20;;;4.25;;
65077;SDS011;51672;51.230;-2.322;2022-10-20T22:55:33;13.13;;;4.13;;
65077;SDS011;51672;51.230;-2.322;2022-10-20T22:59:14;16.48;;;4.07;;
65077;SDS011;51672;51.230;-2.322;2022-10-20T23:02:56;8.00;;;4.10;;
65077;SDS011;51672;51.230;-2.322;2022-10-20T23:06:38;11.87;;;4.07;;
65077;SDS011;51672;51.230;-2.322;2022-10-20T23:10:21;10.32;;;4.10;;
65077;SDS011;51672;51.230;-2.322;2022-10-20T23:14:03;11.10;;;4.82;;
65077;SDS011;51672;51.230;-2.322;2022-10-20T23:17:45;10.87;;;4.20;;
65077;SDS011;51672;51.230;-2.322;2022-10-20T23:21:27;12.07;;;4.15;;
65077;SDS011;51672;51.230;-2.322;2022-10-20T23:25:09;9.50;;;3.78;;
65077;SDS011;51672;51.230;-2.322;2022-10-20T23:28:51;11.85;;;3.75;;
65077;SDS011;51672;51.230;-2.322;2022-10-20T23:32:33;12.15;;;4.05;;
65077;SDS011;51672;51.230;-2.322;2022-10-20T23:36:15;11.43;;;3.67;;
65077;SDS011;51672;51.230;-2.322;2022-10-20T23:39:57;10.60;;;4.25;;
65077;SDS011;51672;51.230;-2.322;2022-10-20T23:43:39;9.73;;;4.07;;
65077;SDS011;51672;51.230;-2.322;2022-10-20T23:47:21;13.05;;;5.28;;
65077;SDS011;51672;51.230;-2.322;2022-10-20T23:51:03;12.32;;;4.50;;
65077;SDS011;51672;51.230;-2.322;2022-10-20T23:54:47;9.03;;;3.57;;
65077;SDS011;51672;51.230;-2.322;2022-10-20T23:58:28;7.50;;;2.45;;
